Time;durP1;ratioP1;P1;durP2;ratioP2;P2;SDS_P1;SDS_P2;PMS_P1;PMS_P2;Temp;Humidity;BMP_temperature;BMP_pressure;BME280_temperature;BME280_humidity;BME280_pressure;Samples;Min_cycle;Max_cycle;Signal;HPM_P1;HPM_P2
2022/04/03 00:00:54;;;;;;;13.47;8.33;;;;;;;-1.89;70.73;102183.47;5000056;28;20187;-74
2022/04/03 00:03:20;;;;;;;11.63;7.43;;;;;;;-2.03;70.65;102186.34;5017147;28;20311;-74
2022/04/03 00:05:45;;;;;;;13.50;8.37;;;;;;;-2.01;70.87;102177.34;4997842;28;20254;-74
2022/04/03 00:08:14;;;;;;;12.27;8.30;;;;;;;-2.08;70.77;102180.94;5005997;28;20195;-74
2022/04/03 00:10:41;;;;;;;11.73;7.93;;;;;;;-2.08;70.06;102187.56;5023336;28;20186;-74
2022/04/03 00:13:07;;;;;;;10.93;7.77;;;;;;;-2.12;70.34;102183.03;5001124;28;20448;-75
2022/04/03 00:15:36;;;;;;;10.40;7.73;;;;;;;-2.14;70.37;102177.88;5025217;28;20490;-74
2022/04/03 00:18:01;;;;;;;10.77;7.50;;;;;;;-2.17;70.55;102175.09;5025217;28;20480;-74
2022/04/03 00:20:26;;;;;;;11.57;7.73;;;;;;;-2.20;70.45;102179.81;5018544;28;20507;-74
2022/04/03 00:22:52;;;;;;;13.00;7.40;;;;;;;-2.21;71.07;102177.19;5020829;28;20202;-74
2022/04/03 00:25:18;;;;;;;11.17;8.00;;;;;;;-2.22;70.51;102172.88;5002080;28;20304;-74
2022/04/03 00:27:47;;;;;;;10.27;7.20;;;;;;;-2.26;70.63;102183.41;5001193;28;20852;-74
2022/04/03 00:30:13;;;;;;;10.13;7.77;;;;;;;-2.28;71.28;102189.91;5017610;28;21141;-74
2022/04/03 00:32:39;;;;;;;9.23;7.07;;;;;;;-2.34;71.54;102180.19;5024845;28;20524;-74
2022/04/03 00:35:05;;;;;;;9.37;6.67;;;;;;;-2.30;71.04;102176.34;5022202;28;20191;-74
2022/04/03 00:37:31;;;;;;;13.20;8.17;;;;;;;-2.30;70.96;102171.34;5006699;28;20265;-74
2022/04/03 00:39:56;;;;;;;9.90;7.37;;;;;;;-2.25;71.47;102176.00;5024146;28;21156;-74
2022/04/03 00:42:22;;;;;;;11.37;7.40;;;;;;;-2.22;71.33;102165.38;5018657;28;20703;-74
2022/04/03 00:44:48;;;;;;;11.03;7.60;;;;;;;-2.21;71.45;102163.00;5004074;28;20182;-74
2022/04/03 00:47:16;;;;;;;12.23;6.83;;;;;;;-2.17;71.39;102156.63;5004928;28;20206;-74
2022/04/03 00:49:41;;;;;;;13.63;7.37;;;;;;;-2.13;71.70;102164.59;5004975;28;20186;-74
2022/04/03 00:52:08;;;;;;;10.23;6.83;;;;;;;-2.10;71.10;102156.44;5024104;28;20871;-74
2022/04/03 00:54:34;;;;;;;12.30;7.67;;;;;;;-2.09;71.63;102156.59;5000901;28;20219;-74
2022/04/03 00:57:02;;;;;;;10.50;6.70;;;;;;;-2.03;71.42;102159.66;5024819;28;20438;-74
2022/04/03 00:59:28;;;;;;;10.27;6.23;;;;;;;-2.03;71.74;102154.63;5024918;28;20538;-74
2022/04/03 01:01:53;;;;;;;11.87;6.90;;;;;;;-1.96;72.20;102151.03;5003957;28;20457;-74
2022/04/03 01:04:19;;;;;;;11.97;6.53;;;;;;;-1.94;72.20;102149.53;5014160;28;20602;-74
2022/04/03 01:06:45;;;;;;;10.17;6.63;;;;;;;-1.92;72.48;102145.56;5013863;28;20252;-74
2022/04/03 01:09:11;;;;;;;9.93;6.37;;;;;;;-1.89;72.44;102148.34;5013128;28;20963;-74
2022/04/03 01:11:37;;;;;;;9.67;6.47;;;;;;;-1.84;72.38;102139.59;4978275;28;20219;-74
2022/04/03 01:14:03;;;;;;;12.23;7.30;;;;;;;-1.83;72.39;102137.19;5011985;28;20698;-74
2022/04/03 01:16:28;;;;;;;9.60;6.97;;;;;;;-1.79;72.44;102141.75;5011885;28;20442;-74
2022/04/03 01:18:55;;;;;;;10.37;6.67;;;;;;;-1.77;72.45;102137.78;5015294;28;20302;-74
2022/04/03 01:21:21;;;;;;;10.93;6.60;;;;;;;-1.72;73.03;102140.66;5008552;28;20448;-74
2022/04/03 01:23:46;;;;;;;10.90;6.97;;;;;;;-1.69;73.45;102131.78;5026745;28;20227;-74
2022/04/03 01:26:12;;;;;;;8.57;7.13;;;;;;;-1.62;73.31;102138.22;5014202;28;20218;-74
2022/04/03 01:28:38;;;;;;;9.43;6.83;;;;;;;-1.61;74.14;102129.97;5031442;28;20191;-74
2022/04/03 01:31:04;;;;;;;10.67;7.17;;;;;;;-1.57;74.31;102125.31;5014029;28;20191;-74
2022/04/03 01:33:29;;;;;;;11.60;7.00;;;;;;;-1.51;75.43;102125.00;5011899;28;20556;-73
2022/04/03 01:35:54;;;;;;;10.87;7.80;;;;;;;-1.50;75.06;102127.63;5011908;28;20237;-74
2022/04/03 01:38:20;;;;;;;11.70;8.30;;;;;;;-1.48;74.84;102125.22;5010120;28;20611;-74
2022/04/03 01:40:45;;;;;;;13.87;9.10;;;;;;;-1.44;74.26;102122.25;5011741;28;20190;-74
2022/04/03 01:43:11;;;;;;;12.53;8.50;;;;;;;-1.37;74.13;102127.06;5011213;28;20210;-74
2022/04/03 01:45:38;;;;;;;14.60;9.23;;;;;;;-1.33;73.82;102124.94;5011513;28;20210;-74
2022/04/03 01:48:05;;;;;;;15.53;9.67;;;;;;;-1.31;73.06;102118.44;5011511;28;20183;-75
2022/04/03 01:50:31;;;;;;;14.17;8.83;;;;;;;-1.30;73.68;102116.78;4995162;28;20449;-74
2022/04/03 01:52:56;;;;;;;12.37;8.97;;;;;;;-1.29;73.51;102123.59;5023026;28;20515;-74
2022/04/03 01:55:24;;;;;;;11.43;8.67;;;;;;;-1.24;74.10;102124.88;5029607;28;20221;-74
2022/04/03 01:57:49;;;;;;;11.90;8.60;;;;;;;-1.16;73.30;102116.34;5024044;28;20183;-74
2022/04/03 02:00:15;;;;;;;10.50;9.00;;;;;;;-1.03;73.62;102116.63;5013715;28;20895;-74
2022/04/03 02:02:40;;;;;;;12.57;8.60;;;;;;;-1.02;73.11;102113.38;5011105;28;20293;-74
2022/04/03 02:05:06;;;;;;;11.00;7.40;;;;;;;-1.04;72.79;102115.78;5025090;28;20194;-74
2022/04/03 02:07:33;;;;;;;11.53;8.00;;;;;;;-1.04;72.60;102113.25;5013630;28;20215;-74
2022/04/03 02:09:59;;;;;;;9.67;7.30;;;;;;;-0.94;72.71;102107.38;5026433;28;20540;-74
2022/04/03 02:12:24;;;;;;;10.37;7.70;;;;;;;-0.88;72.50;102107.88;4993025;28;20549;-74
2022/04/03 02:14:50;;;;;;;8.07;6.83;;;;;;;-0.90;72.17;102096.81;5010703;28;20533;-74
2022/04/03 02:17:15;;;;;;;11.17;7.60;;;;;;;-0.88;72.53;102101.22;5008197;28;20205;-74
2022/04/03 02:19:40;;;;;;;9.60;7.30;;;;;;;-0.89;73.25;102104.50;4994641;28;20211;-74
2022/04/03 02:22:07;;;;;;;9.53;7.10;;;;;;;-0.89;73.68;102099.47;5015399;28;20214;-74
2022/04/03 02:24:33;;;;;;;8.97;6.60;;;;;;;-0.75;74.46;102098.09;5030425;28;20237;-74
2022/04/03 02:26:58;;;;;;;8.83;6.50;;;;;;;-0.77;74.75;102103.00;5013698;28;20482;-74
2022/04/03 02:29:24;;;;;;;10.37;6.93;;;;;;;-0.82;75.21;102091.69;4992388;28;20236;-74
2022/04/03 02:31:49;;;;;;;8.10;6.67;;;;;;;-0.87;74.72;102094.59;4992501;28;20183;-74
2022/04/03 02:34:15;;;;;;;8.77;6.57;;;;;;;-0.89;74.59;102086.91;4999966;28;20197;-74
2022/04/03 02:36:43;;;;;;;8.53;5.90;;;;;;;-0.79;74.32;102093.56;5002633;28;20321;-74
2022/04/03 02:39:08;;;;;;;8.87;6.03;;;;;;;-0.79;74.16;102096.09;5017558;28;20819;-74
2022/04/03 02:41:34;;;;;;;8.70;6.40;;;;;;;-0.85;73.98;102095.56;5029727;28;20449;-74
2022/04/03 02:43:59;;;;;;;8.63;6.17;;;;;;;-0.96;73.62;102088.78;5015887;28;20187;-74
2022/04/03 02:46:25;;;;;;;9.40;6.47;;;;;;;-0.98;74.12;102088.66;5027714;28;20946;-74
2022/04/03 02:48:50;;;;;;;10.10;6.53;;;;;;;-0.96;74.56;102102.22;5008039;28;20643;-74
2022/04/03 02:51:16;;;;;;;12.03;7.23;;;;;;;-0.94;75.06;102092.28;5028632;28;20186;-74
2022/04/03 02:53:41;;;;;;;14.07;7.27;;;;;;;-0.90;74.20;102089.28;5012397;28;20250;-74
2022/04/03 02:56:06;;;;;;;8.53;6.30;;;;;;;-0.93;74.13;102099.97;5010593;28;20240;-74
2022/04/03 02:58:32;;;;;;;10.67;7.20;;;;;;;-0.89;74.17;102094.44;5011139;28;20199;-74
2022/04/03 03:00:57;;;;;;;10.03;6.60;;;;;;;-0.97;74.41;102089.50;5029931;28;20182;-75
2022/04/03 03:03:23;;;;;;;9.30;6.33;;;;;;;-0.89;73.46;102091.03;5011865;28;20210;-74
2022/04/03 03:05:48;;;;;;;9.80;6.87;;;;;;;-0.90;73.67;102092.69;5026594;28;20226;-74
2022/04/03 03:08:14;;;;;;;8.67;6.20;;;;;;;-0.97;73.55;102072.81;5010596;28;20210;-74
2022/04/03 03:10:39;;;;;;;8.80;5.70;;;;;;;-0.99;74.20;102083.47;5008810;28;20186;-74
2022/04/03 03:13:05;;;;;;;9.23;6.67;;;;;;;-1.05;73.52;102082.97;5015817;28;20774;-74
2022/04/03 03:15:30;;;;;;;7.93;5.97;;;;;;;-1.11;73.27;102083.31;5020046;28;20596;-75
2022/04/03 03:17:56;;;;;;;8.83;5.63;;;;;;;-1.13;73.43;102083.94;5010256;28;20552;-74
2022/04/03 03:20:21;;;;;;;8.50;5.77;;;;;;;-1.12;72.96;102089.13;5026174;28;20264;-74
2022/04/03 03:22:48;;;;;;;9.77;6.33;;;;;;;-1.24;73.47;102088.06;5006971;28;20249;-74
2022/04/03 03:25:13;;;;;;;9.10;6.20;;;;;;;-1.31;73.55;102082.38;5028276;28;20218;-74
2022/04/03 03:27:39;;;;;;;12.13;7.47;;;;;;;-1.36;73.31;102083.63;5029451;28;20453;-74
2022/04/03 03:30:06;;;;;;;9.30;6.67;;;;;;;-1.44;73.55;102079.56;5028962;28;20190;-75
2022/04/03 03:32:32;;;;;;;7.07;5.80;;;;;;;-1.51;73.54;102083.16;5011644;28;20221;-74
2022/04/03 03:34:58;;;;;;;8.30;6.10;;;;;;;-1.49;74.52;102076.66;5011039;28;20931;-74
2022/04/03 03:37:23;;;;;;;9.07;5.43;;;;;;;-1.59;74.01;102076.63;5027680;28;20468;-74
2022/04/03 03:39:48;;;;;;;9.60;5.93;;;;;;;-1.60;74.21;102074.84;5029255;28;20214;-74
2022/04/03 03:42:14;;;;;;;10.47;7.10;;;;;;;-1.72;74.60;102068.78;5031731;28;20252;-74
2022/04/03 03:44:40;;;;;;;9.90;7.03;;;;;;;-1.74;74.45;102071.91;5015517;28;20277;-74
2022/04/03 03:47:07;;;;;;;10.90;6.63;;;;;;;-1.87;74.95;102074.09;4996161;28;20175;-74
2022/04/03 03:49:35;;;;;;;8.93;6.00;;;;;;;-1.89;74.41;102075.59;5013609;28;20179;-74
2022/04/03 03:52:00;;;;;;;7.90;6.17;;;;;;;-1.93;73.81;102074.41;5013438;28;20464;-74
2022/04/03 03:54:26;;;;;;;8.37;6.10;;;;;;;-1.98;74.05;102072.28;5020245;28;20178;-74
2022/04/03 03:56:51;;;;;;;8.87;5.73;;;;;;;-1.99;73.56;102065.47;5022823;28;20965;-74
2022/04/03 03:59:17;;;;;;;9.93;5.70;;;;;;;-2.10;73.87;102064.56;5012043;28;20218;-74
2022/04/03 04:01:42;;;;;;;9.70;6.00;;;;;;;-2.10;74.43;102068.66;5013124;28;20179;-74
2022/04/03 04:04:08;;;;;;;9.10;5.80;;;;;;;-2.21;74.26;102067.72;5027674;28;20209;-74
2022/04/03 04:06:33;;;;;;;7.63;5.80;;;;;;;-2.34;74.97;102066.50;4996379;28;20853;-74
2022/04/03 04:08:59;;;;;;;9.53;5.97;;;;;;;-2.35;74.95;102072.25;5017541;28;20175;-74
2022/04/03 04:11:24;;;;;;;8.77;6.20;;;;;;;-2.37;74.63;102072.13;5015217;28;20202;-74
2022/04/03 04:13:50;;;;;;;9.63;6.77;;;;;;;-2.40;74.02;102069.34;5032858;28;20241;-74
2022/04/03 04:16:15;;;;;;;9.67;5.60;;;;;;;-2.39;74.41;102066.06;5025728;28;20202;-74
2022/04/03 04:18:41;;;;;;;8.90;6.50;;;;;;;-2.38;73.81;102070.38;5032819;28;20206;-74
2022/04/03 04:21:06;;;;;;;8.97;6.73;;;;;;;-2.49;74.92;102072.66;5017640;28;20640;-74
2022/04/03 04:23:32;;;;;;;10.50;7.03;;;;;;;-2.51;75.06;102061.59;5012049;28;20253;-74
2022/04/03 04:25:58;;;;;;;11.53;6.70;;;;;;;-2.47;75.92;102067.03;5010554;28;20203;-74
2022/04/03 04:28:24;;;;;;;10.13;6.63;;;;;;;-2.44;76.71;102059.78;5014079;28;20183;-74
2022/04/03 04:30:49;;;;;;;7.27;6.10;;;;;;;-2.48;76.16;102061.88;5026272;28;20219;-74
2022/04/03 04:33:14;;;;;;;12.47;6.50;;;;;;;-2.51;75.70;102070.00;5027862;28;20206;-74
2022/04/03 04:35:40;;;;;;;9.47;6.43;;;;;;;-2.54;75.00;102063.81;5033326;28;20248;-74
2022/04/03 04:38:05;;;;;;;10.43;6.20;;;;;;;-2.53;75.43;102055.56;5033035;28;20242;-74
2022/04/03 04:40:32;;;;;;;9.73;6.10;;;;;;;-2.62;76.47;102055.59;5020047;28;20308;-74
2022/04/03 04:42:58;;;;;;;9.73;6.50;;;;;;;-2.64;76.74;102053.72;5001735;28;20229;-74
2022/04/03 04:45:25;;;;;;;10.30;6.73;;;;;;;-2.60;76.38;102051.63;4996879;28;20469;-74
2022/04/03 04:47:59;;;;;;;8.27;5.97;;;;;;;-2.59;76.96;102052.50;5012557;28;20947;-74
2022/04/03 04:50:25;;;;;;;11.67;6.00;;;;;;;-2.65;77.52;102051.94;5029941;28;20449;-74
2022/04/03 04:52:51;;;;;;;9.60;6.73;;;;;;;-2.64;77.02;102058.72;5013917;28;20957;-74
2022/04/03 04:55:16;;;;;;;10.40;6.67;;;;;;;-2.65;77.60;102050.34;5028524;28;20449;-74
2022/04/03 04:57:49;;;;;;;11.30;6.93;;;;;;;-2.65;78.03;102051.94;5012972;28;20191;-74
2022/04/03 05:00:16;;;;;;;8.33;6.23;;;;;;;-2.67;77.96;102051.81;5012248;28;20286;-73
2022/04/03 05:02:45;;;;;;;8.57;6.43;;;;;;;-2.66;77.53;102047.69;5012130;28;20508;-74
2022/04/03 05:05:10;;;;;;;10.77;6.23;;;;;;;-2.69;76.76;102050.81;5028090;28;20515;-74
2022/04/03 05:07:36;;;;;;;8.37;6.00;;;;;;;-2.69;76.43;102049.91;5013967;28;20881;-74
2022/04/03 05:10:02;;;;;;;9.73;6.17;;;;;;;-2.66;77.38;102050.19;5023833;28;20641;-74
2022/04/03 05:12:27;;;;;;;10.03;6.23;;;;;;;-2.59;77.19;102053.38;5022708;28;20219;-74
2022/04/03 05:14:52;;;;;;;8.47;6.47;;;;;;;-2.61;77.27;102059.91;5012190;28;20281;-74
2022/04/03 05:17:18;;;;;;;8.13;6.30;;;;;;;-2.59;77.06;102057.50;4994641;28;20274;-74
2022/04/03 05:19:43;;;;;;;9.17;6.30;;;;;;;-2.59;77.74;102060.91;5028044;28;20644;-74
2022/04/03 05:22:08;;;;;;;7.57;5.47;;;;;;;-2.53;78.03;102058.94;5011887;28;20568;-74
2022/04/03 05:24:34;;;;;;;9.20;6.20;;;;;;;-2.41;77.63;102056.66;4995087;28;20201;-74
2022/04/03 05:26:59;;;;;;;8.47;6.30;;;;;;;-2.36;77.16;102058.84;5013018;28;20270;-74
2022/04/03 05:29:25;;;;;;;9.67;6.30;;;;;;;-2.34;77.65;102057.34;5028241;28;20277;-74
2022/04/03 05:31:50;;;;;;;7.30;5.60;;;;;;;-2.30;77.69;102051.00;5012420;28;20190;-74
2022/04/03 05:34:15;;;;;;;8.23;5.23;;;;;;;-2.28;77.05;102050.38;5012333;28;20187;-74
2022/04/03 05:36:41;;;;;;;9.30;5.77;;;;;;;-2.27;77.59;102047.13;4994299;28;20202;-74
2022/04/03 05:39:06;;;;;;;33.63;23.73;;;;;;;-2.19;77.96;102046.19;5011697;28;20297;-74
2022/04/03 05:41:35;;;;;;;24.23;18.23;;;;;;;-2.11;77.98;102050.22;4979481;28;20194;-74
2022/04/03 05:44:02;;;;;;;21.10;15.97;;;;;;;-1.88;76.96;102052.25;5025127;28;20187;-74
2022/04/03 05:46:28;;;;;;;19.20;14.10;;;;;;;-1.77;76.55;102047.41;5011664;28;20453;-74
2022/04/03 05:48:53;;;;;;;15.13;11.17;;;;;;;-1.61;76.24;102040.47;5005377;28;20456;-74
2022/04/03 05:51:19;;;;;;;14.37;10.17;;;;;;;-1.43;75.39;102046.16;5031502;28;20183;-75
2022/04/03 05:53:44;;;;;;;10.83;8.43;;;;;;;-1.34;75.39;102046.94;4980042;28;20202;-74
2022/04/03 05:56:09;;;;;;;11.73;7.67;;;;;;;-1.29;75.93;102049.09;5031179;28;20187;-75
2022/04/03 05:58:35;;;;;;;10.30;6.67;;;;;;;-1.06;75.71;102044.41;5030923;28;20245;-74
2022/04/03 06:01:00;;;;;;;9.57;7.03;;;;;;;-0.84;75.77;102047.97;5014875;28;20207;-74
2022/04/03 06:03:25;;;;;;;10.47;7.17;;;;;;;-0.67;75.56;102046.84;5010522;28;20206;-74
2022/04/03 06:05:51;;;;;;;7.90;6.00;;;;;;;-0.50;75.58;102055.00;5009970;28;20550;-74
2022/04/03 06:08:17;;;;;;;6.67;5.30;;;;;;;-0.35;75.50;102056.28;4993265;28;20682;-74
2022/04/03 06:10:43;;;;;;;7.73;5.47;;;;;;;-0.19;74.85;102051.72;5010985;28;20186;-74
2022/04/03 06:13:12;;;;;;;8.63;5.60;;;;;;;-0.02;74.92;102048.94;5008733;28;20796;-74
2022/04/03 06:15:39;;;;;;;6.90;5.00;;;;;;;0.23;74.94;102051.75;5030841;28;20560;-74
2022/04/03 06:18:10;;;;;;;8.37;5.53;;;;;;;0.72;74.57;102053.97;5012947;28;20484;-74
2022/04/03 06:20:36;;;;;;;8.33;5.57;;;;;;;1.08;74.74;102051.72;5030674;28;20237;-74
2022/04/03 06:23:03;;;;;;;10.67;5.37;;;;;;;1.33;73.86;102050.31;5030848;28;20318;-74
2022/04/03 06:25:29;;;;;;;7.50;5.37;;;;;;;1.17;74.66;102054.94;5026517;28;20182;-74
2022/04/03 06:27:55;;;;;;;5.90;4.60;;;;;;;1.16;75.51;102049.03;5032579;28;20847;-74
2022/04/03 06:30:22;;;;;;;6.93;4.53;;;;;;;1.15;76.31;102057.34;5013299;28;20194;-74
2022/04/03 06:32:48;;;;;;;6.63;4.20;;;;;;;1.19;74.83;102048.38;5031502;28;20214;-74
2022/04/03 06:35:13;;;;;;;8.53;4.47;;;;;;;1.35;74.48;102047.13;5012663;28;20186;-74
2022/04/03 06:37:39;;;;;;;5.80;4.70;;;;;;;1.87;73.53;102040.09;5030419;28;20301;-74
2022/04/03 06:40:07;;;;;;;5.27;3.73;;;;;;;1.94;72.24;102043.94;5012631;28;20263;-75
2022/04/03 06:42:33;;;;;;;6.30;3.93;;;;;;;1.74;72.95;102039.97;5030200;28;20710;-74
2022/04/03 06:45:00;;;;;;;8.00;4.70;;;;;;;1.89;73.64;102038.56;5030367;28;20190;-75
2022/04/03 06:47:26;;;;;;;6.50;4.23;;;;;;;2.14;72.70;102046.25;5030509;28;20591;-74
2022/04/03 06:49:52;;;;;;;4.97;3.63;;;;;;;2.17;72.31;102044.84;5030497;28;20210;-75
2022/04/03 06:52:17;;;;;;;4.70;4.00;;;;;;;2.54;72.44;102036.56;5030170;28;20309;-74
2022/04/03 06:54:43;;;;;;;6.00;4.10;;;;;;;2.65;70.79;102033.13;5030469;28;20213;-74
2022/04/03 06:57:08;;;;;;;6.13;3.97;;;;;;;2.70;71.05;102041.03;5031407;28;20221;-75
2022/04/03 06:59:33;;;;;;;4.50;3.80;;;;;;;2.65;71.48;102043.25;5015150;28;20217;-76
2022/04/03 07:01:59;;;;;;;7.20;3.77;;;;;;;2.86;71.24;102039.69;5018758;28;20675;-76
2022/04/03 07:04:24;;;;;;;6.43;4.37;;;;;;;2.78;71.06;102038.28;5018360;28;20191;-75
2022/04/03 07:06:50;;;;;;;5.47;3.73;;;;;;;2.98;71.34;102032.03;5013165;28;20233;-75
2022/04/03 07:09:15;;;;;;;7.63;4.00;;;;;;;2.85;71.45;102027.78;5017242;28;20194;-74
2022/04/03 07:11:40;;;;;;;5.37;3.90;;;;;;;3.13;71.30;102025.50;5025091;28;20194;-71
2022/04/03 07:14:06;;;;;;;6.23;3.53;;;;;;;3.23;70.59;102035.47;5024535;28;20538;-75
2022/04/03 07:16:34;;;;;;;5.10;3.50;;;;;;;3.22;70.24;102032.03;5036909;28;20225;-75
2022/04/03 07:18:59;;;;;;;4.93;3.13;;;;;;;3.27;70.29;102037.44;5025979;28;20213;-75
2022/04/03 07:21:25;;;;;;;5.43;3.53;;;;;;;3.32;70.82;102036.09;4985046;28;20202;-75
2022/04/03 07:23:50;;;;;;;5.10;3.57;;;;;;;3.40;70.86;102035.81;4999620;28;20241;-74
2022/04/03 07:26:16;;;;;;;4.80;3.70;;;;;;;3.49;70.77;102031.34;5002305;28;20285;-74
2022/04/03 07:28:41;;;;;;;5.03;3.90;;;;;;;3.53;70.88;102027.38;5016382;28;20241;-74
2022/04/03 07:31:07;;;;;;;6.33;4.07;;;;;;;3.72;70.55;102027.81;5033674;28;20194;-74
2022/04/03 07:33:32;;;;;;;6.03;3.60;;;;;;;3.81;69.14;102026.75;5025079;28;20205;-75
2022/04/03 07:35:58;;;;;;;4.70;3.80;;;;;;;3.83;70.16;102026.84;5044289;28;20197;-74
2022/04/03 07:38:23;;;;;;;5.23;3.67;;;;;;;3.74;70.67;102032.22;5025140;28;20325;-75
2022/04/03 07:40:49;;;;;;;5.60;3.57;;;;;;;3.61;70.45;102036.34;5038442;28;20190;-74
2022/04/03 07:43:16;;;;;;;5.97;3.77;;;;;;;3.53;71.63;102030.78;5020995;28;20206;-75
2022/04/03 07:45:46;;;;;;;6.17;3.60;;;;;;;3.48;71.99;102028.72;5037628;28;20329;-74
2022/04/03 07:48:11;;;;;;;6.83;3.87;;;;;;;3.61;71.53;102038.88;4999826;28;20202;-75
2022/04/03 07:50:37;;;;;;;5.03;3.80;;;;;;;3.73;71.69;102034.63;4999358;28;20194;-75
2022/04/03 07:53:03;;;;;;;6.13;3.63;;;;;;;3.78;72.17;102025.69;5017205;28;20746;-74
2022/04/03 07:55:28;;;;;;;3.80;3.23;;;;;;;3.81;73.42;102031.81;5018633;28;20210;-75
2022/04/03 07:57:54;;;;;;;4.30;3.37;;;;;;;3.77;75.55;102029.00;5011086;28;20205;-74
2022/04/03 08:00:19;;;;;;;4.10;3.30;;;;;;;3.79;75.91;102029.97;5051734;28;20190;-74
2022/04/03 08:02:45;;;;;;;5.83;4.07;;;;;;;4.03;76.07;102032.44;5031087;28;20213;-75
2022/04/03 08:05:10;;;;;;;8.30;3.63;;;;;;;4.25;75.11;102025.41;5035610;28;20192;-74
2022/04/03 08:07:38;;;;;;;5.20;4.00;;;;;;;4.45;74.46;102030.06;5034943;28;20190;-75
2022/04/03 08:10:06;;;;;;;7.33;3.87;;;;;;;4.52;73.71;102019.50;5036727;28;20818;-75
2022/04/03 08:12:31;;;;;;;6.47;3.57;;;;;;;4.57;73.91;102020.69;5038006;28;20206;-75
2022/04/03 08:14:57;;;;;;;3.97;3.20;;;;;;;4.57;73.40;102027.41;5019204;28;20196;-75
2022/04/03 08:17:22;;;;;;;5.60;3.30;;;;;;;4.56;73.23;102025.66;5052174;28;20189;-75
2022/04/03 08:19:47;;;;;;;5.83;2.97;;;;;;;4.50;73.54;102020.19;5041610;28;20272;-75
2022/04/03 08:22:13;;;;;;;5.47;3.27;;;;;;;4.56;73.33;102025.66;5034115;28;20282;-74
2022/04/03 08:24:38;;;;;;;3.97;2.77;;;;;;;4.36;74.30;102032.03;5031835;28;20248;-74
2022/04/03 08:27:03;;;;;;;3.77;2.67;;;;;;;4.31;74.89;102029.97;5050885;28;20194;-74
2022/04/03 08:29:29;;;;;;;2.90;1.97;;;;;;;4.15;76.25;102032.34;5042082;28;20237;-74
2022/04/03 08:31:54;;;;;;;2.17;1.83;;;;;;;4.17;77.60;102025.69;5053764;28;20201;-74
2022/04/03 08:34:19;;;;;;;3.67;1.90;;;;;;;4.21;78.04;102026.00;5025438;28;20202;-73
2022/04/03 08:36:45;;;;;;;3.50;1.90;;;;;;;4.34;78.69;102027.66;5030045;28;20189;-73
2022/04/03 08:39:10;;;;;;;4.20;2.20;;;;;;;4.39;78.93;102024.63;5037299;28;20217;-73
2022/04/03 08:41:35;;;;;;;4.70;2.00;;;;;;;4.49;78.98;102021.88;5038063;28;20190;-74
2022/04/03 08:44:01;;;;;;;3.70;2.60;;;;;;;4.56;79.44;102025.66;5036331;28;20184;-75
2022/04/03 08:46:32;;;;;;;3.37;2.00;;;;;;;4.60;78.98;102023.41;5020129;28;20679;-75
2022/04/03 08:48:59;;;;;;;3.37;2.30;;;;;;;4.74;78.77;102024.28;5035938;28;20526;-75
2022/04/03 08:51:27;;;;;;;2.53;1.87;;;;;;;5.08;78.42;102020.44;5035153;28;20323;-75
2022/04/03 08:53:53;;;;;;;2.43;1.90;;;;;;;5.23;77.60;102021.34;5033985;28;20213;-75
2022/04/03 08:56:19;;;;;;;3.83;2.07;;;;;;;5.46;75.81;102016.84;5035423;28;20944;-74
2022/04/03 08:58:44;;;;;;;3.53;1.90;;;;;;;5.60;75.64;102017.63;5034931;28;20590;-76
2022/04/03 09:01:10;;;;;;;2.63;1.90;;;;;;;6.77;71.34;102004.81;5053411;28;20200;-75
2022/04/03 09:03:37;;;;;;;3.70;2.17;;;;;;;7.72;67.80;101995.34;5053872;28;20652;-74
2022/04/03 09:06:19;;;;;;;4.80;2.10;;;;;;;7.63;66.97;102001.63;5052438;28;20186;-75
2022/04/03 09:08:45;;;;;;;3.83;1.80;;;;;;;7.76;66.10;101999.78;5051804;28;20194;-76
2022/04/03 09:11:12;;;;;;;3.03;1.73;;;;;;;8.35;65.09;102002.66;5052000;28;20584;-75
2022/04/03 09:13:39;;;;;;;5.00;1.70;;;;;;;7.53;66.15;102002.88;5033686;28;20206;-75
2022/04/03 09:16:05;;;;;;;5.03;2.30;;;;;;;6.61;68.09;102020.06;5052607;28;20189;-74
2022/04/03 09:18:47;;;;;;;4.90;2.10;;;;;;;6.16;70.63;102020.09;5033465;28;20256;-75
2022/04/03 09:21:18;;;;;;;3.47;3.07;;;;;;;6.05;71.63;102016.09;5052835;28;20213;-74
2022/04/03 09:24:14;;;;;;;7.37;4.00;;;;;;;5.94;72.97;102019.69;5035100;28;20267;-75
2022/04/03 09:26:40;;;;;;;5.33;3.70;;;;;;;5.98;73.10;102015.66;5044611;28;20190;-75
2022/04/03 09:29:14;;;;;;;10.20;4.13;;;;;;;5.71;72.81;102014.06;5023547;28;20240;-74
2022/04/03 09:31:40;;;;;;;5.30;4.23;;;;;;;5.78;73.01;102014.50;5015789;28;20648;-74
2022/04/03 09:34:08;;;;;;;7.97;4.57;;;;;;;5.86;73.32;102018.38;5023332;28;20760;-74
2022/04/03 09:36:35;;;;;;;6.17;4.07;;;;;;;6.23;72.42;102013.69;5014217;28;20216;-75
2022/04/03 09:39:08;;;;;;;6.13;3.83;;;;;;;6.64;70.12;102010.03;5014538;28;20222;-75
2022/04/03 09:41:54;;;;;;;4.33;3.50;;;;;;;6.53;70.40;102002.63;4980581;28;20719;-74
2022/04/03 09:44:24;;;;;;;6.57;3.17;;;;;;;8.05;65.98;101993.53;4996059;28;20216;-74
2022/04/03 09:47:09;;;;;;;4.60;3.50;;;;;;;10.93;56.92;101980.34;5006714;28;20284;-76
2022/04/03 09:49:35;;;;;;;3.73;3.00;;;;;;;9.37;59.62;101986.88;5015022;28;20711;-75
2022/04/03 09:52:00;;;;;;;7.07;2.33;;;;;;;13.77;46.89;101973.78;5023074;28;20233;-75
2022/04/03 09:54:26;;;;;;;5.80;2.80;;;;;;;13.64;46.55;101962.31;4997547;28;20187;-75
2022/04/03 09:56:51;;;;;;;5.10;2.57;;;;;;;13.86;45.41;101969.69;5004025;28;20194;-75
2022/04/03 09:59:17;;;;;;;6.87;2.63;;;;;;;12.24;49.68;101970.28;5017761;28;20281;-75
2022/04/03 10:01:42;;;;;;;3.20;2.27;;;;;;;12.76;49.37;101965.88;5007096;28;20586;-75
2022/04/03 10:04:10;;;;;;;4.23;2.33;;;;;;;12.27;50.08;101961.00;5007948;28;20193;-74
2022/04/03 10:06:38;;;;;;;3.37;2.57;;;;;;;12.61;48.39;101957.72;5039482;28;20202;-76
2022/04/03 10:09:04;;;;;;;5.23;2.83;;;;;;;12.20;49.63;101951.34;5037633;28;20240;-76
2022/04/03 10:11:30;;;;;;;5.93;3.20;;;;;;;11.08;53.12;101961.28;5053967;28;20192;-74
2022/04/03 10:13:56;;;;;;;3.80;3.20;;;;;;;10.03;56.03;101964.91;5037483;28;20214;-75
2022/04/03 10:16:22;;;;;;;7.13;3.30;;;;;;;10.03;55.45;101959.81;5004833;28;20228;-76
2022/04/03 10:18:48;;;;;;;5.77;2.90;;;;;;;10.76;52.59;101955.81;5011627;28;20286;-75
2022/04/03 10:21:21;;;;;;;4.73;2.70;;;;;;;10.79;52.92;101951.66;4994059;28;20198;-74
2022/04/03 10:23:47;;;;;;;3.63;2.60;;;;;;;11.69;49.31;101948.84;5011475;28;20203;-75
2022/04/03 10:26:16;;;;;;;4.33;2.70;;;;;;;12.72;48.55;101941.78;4993895;28;20199;-74
2022/04/03 10:28:49;;;;;;;3.70;2.60;;;;;;;12.66;47.50;101938.16;4996555;28;20723;-75
2022/04/03 10:31:16;;;;;;;3.83;2.50;;;;;;;11.43;48.85;101945.38;5011070;28;20171;-75
2022/04/03 10:33:44;;;;;;;3.23;2.47;;;;;;;10.65;49.10;101939.19;5032170;28;20202;-75
2022/04/03 10:36:12;;;;;;;4.80;3.00;;;;;;;10.13;51.46;101946.59;5030557;28;20194;-75
2022/04/03 10:38:48;;;;;;;5.03;2.80;;;;;;;11.90;48.29;101929.84;5029976;28;20214;-75
2022/04/03 10:41:29;;;;;;;4.03;2.27;;;;;;;12.46;46.47;101913.59;5030352;28;20170;-76
2022/04/03 10:44:14;;;;;;;3.73;2.33;;;;;;;13.05;44.15;101912.72;5029865;28;20221;-75
2022/04/03 10:47:01;;;;;;;4.80;1.90;;;;;;;13.15;43.91;101909.53;5030394;28;20277;-76
2022/04/03 10:49:45;;;;;;;4.77;2.10;;;;;;;13.70;42.79;101907.50;5012285;28;20182;-75
2022/04/03 10:52:24;;;;;;;4.60;1.57;;;;;;;13.59;43.15;101894.41;5029910;28;20205;-76
2022/04/03 10:54:52;;;;;;;2.67;1.70;;;;;;;13.35;42.19;101901.50;5048647;28;20558;-74
2022/04/03 10:57:55;;;;;;;3.10;1.57;;;;;;;14.17;40.56;101883.69;5050262;28;20285;-74
2022/04/03 11:00:23;;;;;;;2.97;1.70;;;;;;;13.82;42.13;101898.41;5050564;28;20194;-75
2022/04/03 11:02:59;;;;;;;3.63;1.70;;;;;;;13.17;43.11;101893.31;5049942;28;20693;-75
2022/04/03 11:05:27;;;;;;;4.57;1.80;;;;;;;12.47;44.19;101899.94;5051537;28;20670;-75
2022/04/03 11:07:58;;;;;;;3.87;1.23;;;;;;;10.95;50.40;101918.09;5029393;28;20309;-75
2022/04/03 11:10:45;;;;;;;3.60;1.40;;;;;;;10.34;53.51;101913.25;5013422;28;20193;-76
2022/04/03 11:13:13;;;;;;;3.77;1.60;;;;;;;9.32;57.42;101921.91;5011580;28;20241;-75
2022/04/03 11:15:53;;;;;;;4.03;1.43;;;;;;;9.15;59.04;101918.66;5011892;28;20240;-75
2022/04/03 11:18:29;;;;;;;3.27;1.27;;;;;;;8.96;60.10;101921.25;5029196;28;20276;-74
2022/04/03 11:21:11;;;;;;;2.93;1.27;;;;;;;8.66;61.03;101925.00;5029430;28;20194;-75
2022/04/03 11:23:39;;;;;;;3.00;1.30;;;;;;;8.19;61.17;101932.16;5029074;28;20291;-75